createdAt,value
2023-02-16T00:00:22.602Z,0.28
2023-02-16T00:01:45.533Z,0.26
2023-02-16T00:02:49.395Z,0.24
2023-02-16T00:03:54.170Z,0.24
2023-02-16T00:04:57.044Z,0.23
2023-02-16T00:05:59.997Z,0.23
2023-02-16T00:07:02.842Z,0.22
2023-02-16T00:08:05.656Z,0.21
2023-02-16T00:09:08.486Z,0.21
2023-02-16T00:10:13.215Z,0.19
2023-02-16T00:11:42.990Z,0.18
2023-02-16T00:13:05.164Z,0.15
2023-02-16T00:14:10.798Z,0.15
2023-02-16T00:15:20.749Z,0.14
2023-02-16T00:16:25.201Z,0.13
2023-02-16T00:17:28.093Z,0.13
2023-02-16T00:18:30.989Z,0.13
2023-02-16T00:19:41.420Z,0.12
2023-02-16T00:20:44.451Z,0.12
2023-02-16T00:21:49.334Z,0.12
2023-02-16T00:22:52.639Z,0.12
2023-02-16T00:23:55.589Z,0.11
2023-02-16T00:24:58.494Z,0.11
2023-02-16T00:26:01.503Z,0.10
2023-02-16T00:27:14.213Z,0.09
2023-02-16T00:28:20.771Z,0.07
2023-02-16T00:29:33.628Z,0.07
2023-02-16T00:30:36.659Z,0.04
2023-02-16T00:31:39.690Z,0.04
2023-02-16T00:32:42.984Z,0.02
2023-02-16T00:33:47.210Z,0.01
2023-02-16T00:34:50.089Z,0.01
2023-02-16T00:35:53.010Z,0.01
2023-02-16T00:36:56.871Z,0.00
2023-02-16T00:37:59.735Z,-0.01
2023-02-16T00:39:02.600Z,-0.01
2023-02-16T00:40:08.046Z,-0.03
2023-02-16T00:41:38.717Z,-0.03
2023-02-16T00:42:43.533Z,-0.04
2023-02-16T00:43:46.395Z,-0.05
2023-02-16T00:44:55.017Z,-0.07
2023-02-16T00:45:57.998Z,-0.08
2023-02-16T00:47:04.386Z,-0.09
2023-02-16T00:48:09.249Z,-0.10
2023-02-16T00:49:15.005Z,-0.12
2023-02-16T00:50:25.219Z,-0.13
2023-02-16T00:51:28.491Z,-0.14
2023-02-16T00:52:37.086Z,-0.16
2023-02-16T00:53:39.969Z,-0.19
2023-02-16T00:54:42.889Z,-0.21
2023-02-16T00:55:45.924Z,-0.22
2023-02-16T00:56:48.914Z,-0.23
2023-02-16T00:58:11.686Z,-0.24
2023-02-16T00:59:18.566Z,-0.26
2023-02-16T01:00:26.798Z,-0.28
2023-02-16T01:01:32.265Z,-0.30
2023-02-16T01:02:35.481Z,-0.32
2023-02-16T01:03:38.642Z,-0.33
2023-02-16T01:04:41.902Z,-0.34
2023-02-16T01:05:44.876Z,-0.35
2023-02-16T01:07:07.375Z,-0.35
2023-02-16T01:08:35.089Z,-0.36
2023-02-16T01:09:58.790Z,-0.38
2023-02-16T01:11:07.608Z,-0.40
2023-02-16T01:12:15.418Z,-0.41
2023-02-16T01:13:18.770Z,-0.43
2023-02-16T01:14:21.667Z,-0.44
2023-02-16T01:15:26.212Z,-0.46
2023-02-16T01:16:38.507Z,-0.48
2023-02-16T01:17:41.877Z,-0.51
2023-02-16T01:18:45.596Z,-0.54
2023-02-16T01:19:48.878Z,-0.55
2023-02-16T01:20:52.666Z,-0.56
2023-02-16T01:21:55.542Z,-0.58
2023-02-16T01:22:58.411Z,-0.58
2023-02-16T01:24:01.305Z,-0.58
2023-02-16T01:25:04.556Z,-0.59
2023-02-16T01:26:14.432Z,-0.58
2023-02-16T01:27:17.445Z,-0.58
2023-02-16T01:28:24.013Z,-0.57
2023-02-16T01:29:26.928Z,-0.57
2023-02-16T01:30:30.206Z,-0.57
2023-02-16T01:31:33.379Z,-0.58
2023-02-16T01:32:38.540Z,-0.59
2023-02-16T01:33:43.765Z,-0.61
2023-02-16T01:34:46.592Z,-0.60
2023-02-16T01:35:50.952Z,-0.61
2023-02-16T01:36:53.909Z,-0.62
2023-02-16T01:37:56.970Z,-0.62
2023-02-16T01:39:00.978Z,-0.62
2023-02-16T01:40:04.344Z,-0.61
2023-02-16T01:41:22.722Z,-0.60
2023-02-16T01:42:49.257Z,-0.60
2023-02-16T01:44:02.711Z,-0.60
2023-02-16T01:45:17.764Z,-0.62
2023-02-16T01:46:44.388Z,-0.62
2023-02-16T01:47:55.227Z,-0.63
2023-02-16T01:48:58.220Z,-0.64
2023-02-16T01:50:14.530Z,-0.66
2023-02-16T01:51:55.591Z,-0.64
2023-02-16T01:53:19.023Z,-0.66
2023-02-16T01:54:47.709Z,-0.65
2023-02-16T01:55:58.395Z,-0.65
2023-02-16T01:57:11.158Z,-0.66
2023-02-16T01:58:22.868Z,-0.66
2023-02-16T01:59:37.488Z,-0.65
2023-02-16T02:00:49.750Z,-0.64
2023-02-16T02:01:57.488Z,-0.64
2023-02-16T02:03:29.944Z,-0.64
2023-02-16T02:05:01.358Z,-0.62
2023-02-16T02:06:05.776Z,-0.63
2023-02-16T02:07:20.087Z,-0.63
2023-02-16T02:08:38.773Z,-0.64
2023-02-16T02:09:52.099Z,-0.64
2023-02-16T02:11:00.675Z,-0.64
2023-02-16T02:12:14.749Z,-0.66
2023-02-16T02:13:44.542Z,-0.65
2023-02-16T02:14:49.123Z,-0.67
2023-02-16T02:15:52.834Z,-0.68
2023-02-16T02:16:58.496Z,-0.69
2023-02-16T02:18:02.655Z,-0.69
2023-02-16T02:19:06.438Z,-0.70
2023-02-16T02:21:11.249Z,-0.70
2023-02-16T02:23:07.961Z,-0.72
2023-02-16T02:24:30.040Z,-0.74
2023-02-16T02:25:54.510Z,-0.78
2023-02-16T02:27:04.055Z,-0.79
2023-02-16T02:28:19.267Z,-0.82
2023-02-16T02:29:40.846Z,-0.83
2023-02-16T02:30:53.722Z,-0.85
2023-02-16T02:32:17.096Z,-0.85
2023-02-16T02:33:39.303Z,-0.86
2023-02-16T02:34:42.144Z,-0.88
2023-02-16T02:35:56.695Z,-0.89
2023-02-16T02:37:10.213Z,-0.90
2023-02-16T02:38:35.995Z,-0.90
2023-02-16T02:39:42.304Z,-0.91
2023-02-16T02:41:23.820Z,-0.92
2023-02-16T02:42:37.938Z,-0.93
2023-02-16T02:43:46.396Z,-0.93
2023-02-16T02:44:53.599Z,-0.94
2023-02-16T02:46:03.926Z,-0.95
2023-02-16T02:47:07.336Z,-0.94
2023-02-16T02:48:10.439Z,-0.95
2023-02-16T02:49:13.325Z,-0.95
2023-02-16T02:50:40.791Z,-0.95
2023-02-16T02:51:44.348Z,-0.96
2023-02-16T02:52:47.693Z,-0.97
2023-02-16T02:54:14.894Z,-0.98
2023-02-16T02:55:38.095Z,-0.99
2023-02-16T02:57:10.299Z,-1.02
2023-02-16T02:58:33.103Z,-1.03
2023-02-16T02:59:59.156Z,-1.05
2023-02-16T03:01:04.174Z,-1.07
2023-02-16T03:02:08.488Z,-1.09
2023-02-16T03:03:15.572Z,-1.10
2023-02-16T03:04:21.957Z,-1.10
2023-02-16T03:05:29.725Z,-1.10
2023-02-16T03:06:37.994Z,-1.11
2023-02-16T03:07:47.738Z,-1.12
2023-02-16T03:08:58.229Z,-1.12
2023-02-16T03:10:21.046Z,-1.13
2023-02-16T03:11:47.972Z,-1.14
2023-02-16T03:12:51.596Z,-1.15
2023-02-16T03:13:59.185Z,-1.16
2023-02-16T03:15:02.808Z,-1.17
2023-02-16T03:16:12.498Z,-1.17
2023-02-16T03:17:39.097Z,-1.20
2023-02-16T03:19:04.422Z,-1.21
2023-02-16T03:20:30.999Z,-1.22
2023-02-16T03:21:54.152Z,-1.24
2023-02-16T03:23:17.244Z,-1.25
2023-02-16T03:24:50.258Z,-1.26
2023-02-16T03:26:11.825Z,-1.26
2023-02-16T03:27:38.521Z,-1.25
2023-02-16T03:29:03.344Z,-1.26
2023-02-16T03:30:08.740Z,-1.26
2023-02-16T03:31:17.567Z,-1.27
2023-02-16T03:32:20.953Z,-1.28
2023-02-16T03:33:25.616Z,-1.29
2023-02-16T03:34:30.245Z,-1.30
2023-02-16T03:35:33.219Z,-1.31
2023-02-16T03:36:43.583Z,-1.32
2023-02-16T03:37:46.984Z,-1.32
2023-02-16T03:38:51.045Z,-1.34
2023-02-16T03:40:12.973Z,-1.33
2023-02-16T03:41:15.825Z,-1.33
2023-02-16T03:42:21.268Z,-1.33
2023-02-16T03:43:28.906Z,-1.35
2023-02-16T03:44:31.758Z,-1.36
2023-02-16T03:45:37.554Z,-1.38
2023-02-16T03:46:40.881Z,-1.38
2023-02-16T03:47:43.724Z,-1.40
2023-02-16T03:48:46.622Z,-1.41
2023-02-16T03:49:49.646Z,-1.41
2023-02-16T03:50:52.524Z,-1.42
2023-02-16T03:51:55.363Z,-1.41
2023-02-16T03:53:07.160Z,-1.42
2023-02-16T03:54:10.538Z,-1.42
2023-02-16T03:55:13.890Z,-1.43
2023-02-16T03:56:17.416Z,-1.43
2023-02-16T03:57:20.413Z,-1.43
2023-02-16T03:58:24.499Z,-1.43
2023-02-16T03:59:27.510Z,-1.40
2023-02-16T04:00:31.598Z,-1.39
2023-02-16T04:01:34.544Z,-1.37
2023-02-16T04:02:37.447Z,-1.37
2023-02-16T04:03:40.403Z,-1.37
2023-02-16T04:04:43.295Z,-1.37
2023-02-16T04:05:46.433Z,-1.37
2023-02-16T04:06:49.306Z,-1.37
2023-02-16T04:07:52.544Z,-1.37
2023-02-16T04:08:55.432Z,-1.37
2023-02-16T04:09:58.662Z,-1.37
2023-02-16T04:11:21.480Z,-1.37
2023-02-16T04:12:36.283Z,-1.37
2023-02-16T04:13:39.189Z,-1.38
2023-02-16T04:14:43.682Z,-1.39
2023-02-16T04:15:46.799Z,-1.40
2023-02-16T04:16:49.742Z,-1.40
2023-02-16T04:17:54.176Z,-1.41
2023-02-16T04:18:57.068Z,-1.41
2023-02-16T04:19:59.975Z,-1.41
2023-02-16T04:21:03.063Z,-1.42
2023-02-16T04:22:06.013Z,-1.43
2023-02-16T04:23:09.087Z,-1.44
2023-02-16T04:24:11.958Z,-1.44
2023-02-16T04:25:16.037Z,-1.45
2023-02-16T04:26:18.991Z,-1.46
2023-02-16T04:27:22.269Z,-1.46
2023-02-16T04:28:25.098Z,-1.47
2023-02-16T04:29:29.379Z,-1.47
2023-02-16T04:30:32.422Z,-1.48
2023-02-16T04:31:35.598Z,-1.48
2023-02-16T04:32:39.653Z,-1.48
2023-02-16T04:33:42.518Z,-1.49
2023-02-16T04:34:45.386Z,-1.50
2023-02-16T04:35:48.265Z,-1.50
2023-02-16T04:36:51.353Z,-1.50
2023-02-16T04:37:54.221Z,-1.50
2023-02-16T04:38:57.135Z,-1.51
2023-02-16T04:40:00.070Z,-1.52
2023-02-16T04:41:03.236Z,-1.52
2023-02-16T04:42:06.332Z,-1.52
2023-02-16T04:43:09.217Z,-1.53
2023-02-16T04:44:12.071Z,-1.52
2023-02-16T04:45:15.226Z,-1.52
2023-02-16T04:46:19.569Z,-1.53
2023-02-16T04:47:25.859Z,-1.52
2023-02-16T04:48:28.752Z,-1.52
2023-02-16T04:49:31.709Z,-1.54
2023-02-16T04:50:34.642Z,-1.54
2023-02-16T04:51:37.522Z,-1.54
2023-02-16T04:52:41.560Z,-1.55
2023-02-16T04:53:44.475Z,-1.55
2023-02-16T04:54:47.812Z,-1.56
2023-02-16T04:55:50.998Z,-1.56
2023-02-16T04:56:53.870Z,-1.56
2023-02-16T04:57:57.103Z,-1.57
2023-02-16T04:59:00.322Z,-1.57
2023-02-16T05:00:04.886Z,-1.58
2023-02-16T05:01:08.159Z,-1.61
2023-02-16T05:02:11.285Z,-1.62
2023-02-16T05:03:14.187Z,-1.62
2023-02-16T05:04:17.152Z,-1.63
2023-02-16T05:05:20.074Z,-1.63
2023-02-16T05:06:23.406Z,-1.63
2023-02-16T05:07:26.266Z,-1.63
2023-02-16T05:08:29.962Z,-1.64
2023-02-16T05:09:32.828Z,-1.64
2023-02-16T05:10:35.810Z,-1.63
2023-02-16T05:11:57.508Z,-1.63
2023-02-16T05:13:19.084Z,-1.63
2023-02-16T05:14:45.026Z,-1.64
2023-02-16T05:15:49.570Z,-1.64
2023-02-16T05:16:52.852Z,-1.65
2023-02-16T05:17:55.968Z,-1.66
2023-02-16T05:18:59.016Z,-1.65
2023-02-16T05:20:02.083Z,-1.66
2023-02-16T05:21:24.054Z,-1.66
2023-02-16T05:22:28.918Z,-1.66
2023-02-16T05:23:31.986Z,-1.66
2023-02-16T05:24:35.018Z,-1.67
2023-02-16T05:25:37.963Z,-1.67
2023-02-16T05:26:40.880Z,-1.66
2023-02-16T05:27:43.919Z,-1.67
2023-02-16T05:28:46.782Z,-1.66
2023-02-16T05:29:49.771Z,-1.67
2023-02-16T05:30:54.174Z,-1.66
2023-02-16T05:31:57.623Z,-1.67
2023-02-16T05:33:00.639Z,-1.67
2023-02-16T05:34:03.574Z,-1.67
2023-02-16T05:35:06.705Z,-1.66
2023-02-16T05:36:10.047Z,-1.66
2023-02-16T05:37:15.015Z,-1.66
2023-02-16T05:38:17.893Z,-1.66
2023-02-16T05:39:21.909Z,-1.66
2023-02-16T05:40:24.854Z,-1.66
2023-02-16T05:41:27.787Z,-1.65
2023-02-16T05:42:30.602Z,-1.65
2023-02-16T05:43:33.609Z,-1.64
2023-02-16T05:44:37.490Z,-1.64
2023-02-16T05:45:40.341Z,-1.63
2023-02-16T05:46:43.866Z,-1.63
2023-02-16T05:47:47.331Z,-1.63
2023-02-16T05:48:51.349Z,-1.62
2023-02-16T05:49:54.224Z,-1.62
2023-02-16T05:50:57.109Z,-1.63
2023-02-16T05:51:59.960Z,-1.63
2023-02-16T05:53:02.801Z,-1.64
2023-02-16T05:54:06.749Z,-1.63
2023-02-16T05:55:09.781Z,-1.64
2023-02-16T05:56:13.430Z,-1.63
2023-02-16T05:57:16.270Z,-1.64
2023-02-16T05:58:19.126Z,-1.63
2023-02-16T05:59:22.069Z,-1.62
2023-02-16T06:00:25.454Z,-1.62
2023-02-16T06:01:29.623Z,-1.62
2023-02-16T06:02:32.517Z,-1.62
2023-02-16T06:03:36.522Z,-1.61
2023-02-16T06:04:39.628Z,-1.61
2023-02-16T06:05:42.474Z,-1.60
2023-02-16T06:06:45.699Z,-1.59
2023-02-16T06:07:48.708Z,-1.59
2023-02-16T06:08:51.814Z,-1.59
2023-02-16T06:09:54.797Z,-1.58
2023-02-16T06:10:57.964Z,-1.58
2023-02-16T06:12:00.809Z,-1.58
2023-02-16T06:13:03.795Z,-1.57
2023-02-16T06:14:13.547Z,-1.56
2023-02-16T06:15:16.907Z,-1.55
2023-02-16T06:16:19.786Z,-1.55
2023-02-16T06:17:22.694Z,-1.54
2023-02-16T06:18:26.548Z,-1.54
2023-02-16T06:19:29.576Z,-1.53
2023-02-16T06:20:32.960Z,-1.52
2023-02-16T06:21:37.069Z,-1.51
2023-02-16T06:22:39.937Z,-1.51
2023-02-16T06:23:42.810Z,-1.50
2023-02-16T06:24:45.643Z,-1.49
2023-02-16T06:25:54.123Z,-1.48
2023-02-16T06:26:57.008Z,-1.47
2023-02-16T06:28:00.121Z,-1.46
2023-02-16T06:29:03.478Z,-1.45
2023-02-16T06:30:08.806Z,-1.43
2023-02-16T06:31:12.009Z,-1.42
2023-02-16T06:32:15.171Z,-1.40
2023-02-16T06:33:18.101Z,-1.38
2023-02-16T06:34:21.082Z,-1.37
2023-02-16T06:35:24.388Z,-1.34
2023-02-16T06:36:27.345Z,-1.33
2023-02-16T06:37:30.473Z,-1.33
2023-02-16T06:38:33.323Z,-1.32
2023-02-16T06:39:36.245Z,-1.30
2023-02-16T06:40:39.159Z,-1.29
2023-02-16T06:41:42.055Z,-1.28
2023-02-16T06:42:45.413Z,-1.25
2023-02-16T06:43:48.336Z,-1.24
2023-02-16T06:44:51.149Z,-1.23
2023-02-16T06:45:54.103Z,-1.21
2023-02-16T06:46:57.620Z,-1.19
2023-02-16T06:48:00.665Z,-1.17
2023-02-16T06:49:03.997Z,-1.16
2023-02-16T06:50:09.952Z,-1.15
2023-02-16T06:51:12.825Z,-1.12
2023-02-16T06:52:15.809Z,-1.13
2023-02-16T06:53:19.320Z,-1.08
2023-02-16T06:54:22.296Z,-1.05
2023-02-16T06:55:25.204Z,-1.02
2023-02-16T06:56:28.317Z,-0.99
2023-02-16T06:57:31.405Z,-0.96
2023-02-16T06:58:34.653Z,-0.93
2023-02-16T06:59:37.549Z,-0.90
2023-02-16T07:00:40.502Z,-0.87
2023-02-16T07:01:45.231Z,-0.83
2023-02-16T07:02:48.502Z,-0.79
2023-02-16T07:03:53.463Z,-0.76
2023-02-16T07:04:56.329Z,-0.73
2023-02-16T07:05:59.213Z,-0.69
2023-02-16T07:07:02.770Z,-0.66
2023-02-16T07:08:05.695Z,-0.61
2023-02-16T07:09:10.615Z,-0.56
2023-02-16T07:10:14.639Z,-0.51
2023-02-16T07:11:18.028Z,-0.48
2023-02-16T07:12:20.862Z,-0.44
2023-02-16T07:13:23.750Z,-0.41
2023-02-16T07:14:26.654Z,-0.37
2023-02-16T07:15:29.695Z,-0.31
2023-02-16T07:16:32.567Z,-0.26
2023-02-16T07:17:35.839Z,-0.21
2023-02-16T07:18:38.900Z,-0.17
2023-02-16T07:19:41.842Z,-0.11
2023-02-16T07:20:44.854Z,-0.06
2023-02-16T07:21:47.709Z,-0.01
2023-02-16T07:22:50.581Z,0.05
2023-02-16T07:23:53.401Z,0.09
2023-02-16T07:24:57.465Z,0.15
2023-02-16T07:26:00.348Z,0.20
2023-02-16T07:27:05.291Z,0.26
2023-02-16T07:28:08.241Z,0.33
2023-02-16T07:29:11.121Z,0.38
2023-02-16T07:30:16.624Z,0.44
2023-02-16T07:31:20.287Z,0.51
2023-02-16T07:32:23.426Z,0.55
2023-02-16T07:33:26.365Z,0.60
2023-02-16T07:34:29.322Z,0.66
2023-02-16T07:35:33.447Z,0.70
2023-02-16T07:36:36.554Z,0.74
2023-02-16T07:37:40.634Z,0.80
2023-02-16T07:38:43.584Z,0.85
2023-02-16T07:39:46.465Z,0.91
2023-02-16T07:40:49.462Z,0.95
2023-02-16T07:41:52.312Z,0.99
2023-02-16T07:42:55.381Z,1.03
2023-02-16T07:43:58.318Z,1.07
2023-02-16T07:45:01.229Z,1.10
2023-02-16T07:46:04.304Z,1.14
2023-02-16T07:47:07.356Z,1.17
2023-02-16T07:48:10.302Z,1.20
2023-02-16T07:49:13.276Z,1.24
2023-02-16T07:50:16.615Z,1.29
2023-02-16T07:51:24.017Z,1.34
2023-02-16T07:52:31.344Z,1.36
2023-02-16T07:53:34.311Z,1.43
2023-02-16T07:54:38.047Z,1.47
2023-02-16T07:55:42.620Z,1.53
2023-02-16T07:56:47.074Z,1.57
2023-02-16T07:57:54.673Z,1.61
2023-02-16T07:58:59.578Z,1.66
2023-02-16T08:00:03.326Z,1.71
2023-02-16T08:01:16.002Z,1.76
2023-02-16T08:02:20.061Z,1.81
2023-02-16T08:03:23.844Z,1.87
2023-02-16T08:04:27.349Z,1.91
2023-02-16T08:05:30.345Z,1.98
2023-02-16T08:06:35.693Z,2.03
2023-02-16T08:07:39.972Z,2.08
2023-02-16T08:08:42.958Z,2.13
2023-02-16T08:09:46.363Z,2.17
2023-02-16T08:10:49.317Z,2.23
2023-02-16T08:11:52.698Z,2.29
2023-02-16T08:12:55.550Z,2.34
2023-02-16T08:14:01.222Z,2.40
2023-02-16T08:15:05.119Z,2.47
2023-02-16T08:16:21.199Z,2.53
2023-02-16T08:17:24.135Z,2.60
2023-02-16T08:18:26.949Z,2.66
2023-02-16T08:19:29.843Z,2.73
2023-02-16T08:20:53.885Z,2.79
2023-02-16T08:21:55.825Z,2.88
2023-02-16T08:22:59.485Z,2.96
2023-02-16T08:24:05.478Z,3.03
2023-02-16T08:25:08.698Z,3.10
2023-02-16T08:26:11.993Z,3.18
2023-02-16T08:27:14.951Z,3.25
2023-02-16T08:28:17.870Z,3.32
2023-02-16T08:29:21.547Z,3.37
2023-02-16T08:30:25.116Z,3.42
2023-02-16T08:31:30.979Z,3.46
2023-02-16T08:32:34.473Z,3.52
2023-02-16T08:33:38.199Z,3.58
2023-02-16T08:34:43.318Z,3.63
2023-02-16T08:35:46.488Z,3.68
2023-02-16T08:36:56.925Z,3.72
2023-02-16T08:38:00.241Z,3.77
2023-02-16T08:39:07.618Z,3.80
2023-02-16T08:40:10.905Z,3.83
2023-02-16T08:41:13.786Z,3.87
2023-02-16T08:42:17.532Z,3.92
2023-02-16T08:43:20.383Z,3.96
2023-02-16T08:44:25.209Z,4.01
2023-02-16T08:45:29.875Z,4.04
2023-02-16T08:46:34.230Z,4.10
2023-02-16T08:47:37.132Z,4.15
2023-02-16T08:48:40.528Z,4.16
2023-02-16T08:49:44.614Z,4.18
2023-02-16T08:50:55.117Z,4.21
2023-02-16T08:51:59.055Z,4.25
2023-02-16T08:53:02.663Z,4.29
2023-02-16T08:54:08.739Z,4.33
2023-02-16T08:55:12.019Z,4.32
2023-02-16T08:56:16.829Z,4.37
2023-02-16T08:57:19.851Z,4.43
2023-02-16T08:58:23.818Z,4.46
2023-02-16T08:59:28.899Z,4.50
2023-02-16T09:00:35.100Z,4.53
2023-02-16T09:01:37.985Z,4.58
2023-02-16T09:02:40.921Z,4.62
2023-02-16T09:03:46.308Z,4.66
2023-02-16T09:04:49.855Z,4.70
2023-02-16T09:05:53.450Z,4.74
2023-02-16T09:06:58.232Z,4.78
2023-02-16T09:08:01.137Z,4.83
2023-02-16T09:09:05.159Z,4.87
2023-02-16T09:10:08.157Z,4.89
2023-02-16T09:11:13.724Z,4.90
2023-02-16T09:12:16.614Z,4.91
2023-02-16T09:13:20.442Z,4.92
2023-02-16T09:14:23.493Z,4.92
2023-02-16T09:15:26.609Z,4.93
2023-02-16T09:16:33.851Z,4.94
2023-02-16T09:17:37.551Z,4.96
2023-02-16T09:18:41.023Z,4.98
2023-02-16T09:19:45.256Z,5.02
2023-02-16T09:20:48.137Z,5.06
2023-02-16T09:21:51.244Z,5.10
2023-02-16T09:22:54.293Z,5.16
2023-02-16T09:23:58.348Z,5.21
2023-02-16T09:25:01.239Z,5.23
2023-02-16T09:26:07.448Z,5.22
2023-02-16T09:27:11.797Z,5.24
2023-02-16T09:28:16.112Z,5.27
2023-02-16T09:29:19.010Z,5.31
2023-02-16T09:30:22.140Z,5.36
2023-02-16T09:31:29.223Z,5.40
2023-02-16T09:32:32.188Z,5.44
2023-02-16T09:33:35.138Z,5.45
2023-02-16T09:34:38.617Z,5.46
2023-02-16T09:35:42.307Z,5.48
2023-02-16T09:36:45.716Z,5.49
2023-02-16T09:37:50.057Z,5.52
2023-02-16T09:38:54.276Z,5.57
2023-02-16T09:39:57.132Z,5.62
2023-02-16T09:41:07.942Z,5.65
2023-02-16T09:42:45.295Z,5.69
2023-02-16T09:43:57.660Z,5.73
2023-02-16T09:45:20.473Z,5.80
2023-02-16T09:46:25.416Z,5.87
2023-02-16T09:47:34.845Z,5.93
2023-02-16T09:48:46.048Z,5.97
2023-02-16T09:49:49.984Z,5.99
2023-02-16T09:50:54.872Z,6.00
2023-02-16T09:52:28.366Z,6.01
2023-02-16T09:53:41.098Z,6.04
2023-02-16T09:54:57.712Z,6.08
2023-02-16T09:56:25.557Z,6.13
2023-02-16T09:57:42.025Z,6.16
2023-02-16T09:58:57.701Z,6.21
2023-02-16T10:00:35.884Z,6.26
2023-02-16T10:01:41.709Z,6.28
2023-02-16T10:03:02.651Z,6.29
2023-02-16T10:04:46.212Z,6.37
2023-02-16T10:05:52.153Z,6.49
2023-02-16T10:06:58.485Z,6.55
2023-02-16T10:08:21.234Z,6.55
2023-02-16T10:09:27.974Z,6.60
2023-02-16T10:10:40.058Z,6.63
2023-02-16T10:11:50.322Z,6.64
2023-02-16T10:13:05.355Z,6.65
2023-02-16T10:14:57.655Z,6.68
2023-02-16T10:16:03.107Z,6.70
2023-02-16T10:17:37.844Z,6.73
2023-02-16T10:18:45.094Z,6.74
2023-02-16T10:20:13.142Z,6.72
2023-02-16T10:21:22.606Z,6.70
2023-02-16T10:22:50.557Z,6.70
2023-02-16T10:24:04.018Z,6.68
2023-02-16T10:25:19.730Z,6.69
2023-02-16T10:26:33.710Z,6.75
2023-02-16T10:27:51.434Z,6.76
2023-02-16T10:29:02.076Z,6.83
2023-02-16T10:30:18.156Z,6.90
2023-02-16T10:32:00.419Z,6.93
2023-02-16T10:33:16.949Z,6.97
2023-02-16T10:34:33.634Z,6.99
2023-02-16T10:35:52.439Z,6.99
2023-02-16T10:37:07.627Z,7.05
2023-02-16T10:38:22.575Z,7.12
2023-02-16T10:39:42.508Z,7.17
2023-02-16T10:41:09.811Z,7.23
2023-02-16T10:42:25.164Z,7.26
2023-02-16T10:43:46.657Z,7.29
2023-02-16T10:45:13.461Z,7.36
2023-02-16T10:46:30.594Z,7.44
2023-02-16T10:47:37.522Z,7.55
2023-02-16T10:48:40.682Z,7.62
2023-02-16T10:49:44.861Z,7.68
2023-02-16T10:51:06.556Z,7.72
2023-02-16T10:52:11.467Z,7.73
2023-02-16T10:53:18.900Z,7.74
2023-02-16T10:54:30.696Z,7.76
2023-02-16T10:55:33.717Z,7.77
2023-02-16T10:56:50.093Z,7.80
2023-02-16T10:57:57.382Z,7.84
2023-02-16T10:59:02.415Z,7.85
2023-02-16T11:00:17.997Z,7.89
2023-02-16T11:01:37.475Z,7.92
2023-02-16T11:02:47.453Z,7.96
2023-02-16T11:03:53.298Z,8.01
2023-02-16T11:04:59.060Z,8.06
2023-02-16T11:06:15.455Z,8.07
2023-02-16T11:07:24.226Z,8.07
2023-02-16T11:08:47.581Z,8.09
2023-02-16T11:09:55.815Z,8.13
2023-02-16T11:11:09.542Z,8.18
2023-02-16T11:12:15.681Z,8.22
2023-02-16T11:13:24.367Z,8.23
2023-02-16T11:14:31.087Z,8.26
2023-02-16T11:15:37.604Z,8.27
2023-02-16T11:16:40.631Z,8.28
2023-02-16T11:18:06.272Z,8.27
2023-02-16T11:19:20.966Z,8.27
2023-02-16T11:20:48.412Z,8.27
2023-02-16T11:21:56.574Z,8.27
2023-02-16T11:23:22.064Z,8.29
2023-02-16T11:24:26.988Z,8.32
2023-02-16T11:25:29.949Z,8.34
2023-02-16T11:26:32.980Z,8.37
2023-02-16T11:27:35.924Z,8.38
2023-02-16T11:28:47.951Z,8.39
2023-02-16T11:29:51.521Z,8.41
2023-02-16T11:31:02.230Z,8.43
2023-02-16T11:32:11.547Z,8.45
2023-02-16T11:33:24.169Z,8.47
2023-02-16T11:34:39.510Z,8.53
2023-02-16T11:35:44.795Z,8.58
2023-02-16T11:36:48.414Z,8.60
2023-02-16T11:37:51.488Z,8.60
2023-02-16T11:39:00.222Z,8.60
2023-02-16T11:40:06.186Z,8.61
2023-02-16T11:41:09.207Z,8.65
2023-02-16T11:42:41.974Z,8.70
2023-02-16T11:43:44.986Z,8.70
2023-02-16T11:44:57.286Z,8.77
2023-02-16T11:46:11.807Z,8.79
2023-02-16T11:47:25.641Z,8.82
2023-02-16T11:48:32.716Z,8.83
2023-02-16T11:49:39.865Z,8.80
2023-02-16T11:51:08.862Z,8.79
2023-02-16T11:52:22.322Z,8.84
2023-02-16T11:53:28.489Z,8.87
2023-02-16T11:54:31.330Z,8.89
2023-02-16T11:55:34.321Z,8.92
2023-02-16T11:56:37.406Z,8.95
2023-02-16T11:57:40.879Z,8.98
2023-02-16T11:58:45.127Z,8.98
2023-02-16T11:59:47.995Z,8.96
2023-02-16T12:01:12.288Z,8.96
2023-02-16T12:02:31.826Z,8.97
2023-02-16T12:04:02.535Z,8.97
2023-02-16T12:05:08.582Z,8.96
2023-02-16T12:06:24.083Z,8.95
2023-02-16T12:07:31.685Z,8.95
2023-02-16T12:08:48.453Z,8.96
2023-02-16T12:09:54.347Z,8.98
2023-02-16T12:11:32.314Z,8.99
2023-02-16T12:13:10.478Z,9.01
2023-02-16T12:14:42.020Z,9.02
2023-02-16T12:15:54.899Z,9.00
2023-02-16T12:17:27.914Z,8.99
2023-02-16T12:18:55.472Z,8.97
2023-02-16T12:20:23.644Z,8.96
2023-02-16T12:21:34.896Z,8.94
2023-02-16T12:22:37.682Z,8.91
2023-02-16T12:24:22.749Z,8.89
2023-02-16T12:25:42.643Z,8.86
2023-02-16T12:26:58.700Z,8.85
2023-02-16T12:28:37.582Z,8.82
2023-02-16T12:29:59.416Z,8.80
2023-02-16T12:31:29.922Z,8.80
2023-02-16T12:32:48.198Z,8.82
2023-02-16T12:34:09.432Z,8.86
2023-02-16T12:35:27.650Z,8.87
2023-02-16T12:36:56.454Z,8.88
2023-02-16T12:38:28.848Z,8.89
2023-02-16T12:39:49.305Z,8.92
2023-02-16T12:41:11.406Z,8.95
2023-02-16T12:42:40.313Z,9.00
2023-02-16T12:43:48.841Z,9.06
2023-02-16T12:44:57.094Z,9.11
2023-02-16T12:46:13.583Z,9.16
2023-02-16T12:47:25.975Z,9.16
2023-02-16T12:48:53.978Z,9.27
2023-02-16T12:50:02.005Z,9.30
2023-02-16T12:51:11.823Z,9.41
2023-02-16T12:52:34.010Z,9.48
2023-02-16T12:53:47.006Z,9.53
2023-02-16T12:54:55.636Z,9.57
2023-02-16T12:56:08.187Z,9.62
2023-02-16T12:57:15.475Z,9.69
2023-02-16T12:58:22.461Z,9.70
2023-02-16T12:59:35.436Z,9.72
2023-02-16T13:00:49.712Z,9.70
2023-02-16T13:01:56.551Z,9.70
2023-02-16T13:03:21.180Z,9.68
2023-02-16T13:04:44.289Z,9.67
2023-02-16T13:06:18.392Z,9.70
2023-02-16T13:07:31.813Z,9.77
2023-02-16T13:08:51.556Z,9.83
2023-02-16T13:10:17.113Z,9.86
2023-02-16T13:11:25.900Z,9.82
2023-02-16T13:12:40.577Z,9.77
2023-02-16T13:13:46.800Z,9.74
2023-02-16T13:15:02.276Z,9.73
2023-02-16T13:16:32.005Z,9.67
2023-02-16T13:17:58.785Z,9.64
2023-02-16T13:19:01.901Z,9.58
2023-02-16T13:20:15.238Z,9.51
2023-02-16T13:21:51.902Z,9.43
2023-02-16T13:23:24.058Z,9.35
2023-02-16T13:24:53.282Z,9.26
2023-02-16T13:26:04.437Z,9.19
2023-02-16T13:27:07.724Z,9.11
2023-02-16T13:28:32.507Z,9.04
2023-02-16T13:30:08.935Z,8.96
2023-02-16T13:31:40.513Z,8.87
2023-02-16T13:33:04.220Z,8.79
2023-02-16T13:34:21.447Z,8.71
2023-02-16T13:35:35.788Z,8.67
2023-02-16T13:36:44.669Z,8.63
2023-02-16T13:38:24.145Z,8.60
2023-02-16T13:39:56.286Z,8.56
2023-02-16T13:41:17.785Z,8.50
2023-02-16T13:42:48.577Z,8.47
2023-02-16T13:43:57.987Z,8.44
2023-02-16T13:45:04.033Z,8.41
2023-02-16T13:46:13.572Z,8.39
2023-02-16T13:47:22.077Z,8.38
2023-02-16T13:48:36.928Z,8.37
2023-02-16T13:49:43.301Z,8.35
2023-02-16T13:50:47.835Z,8.32
2023-02-16T13:51:51.559Z,8.30
2023-02-16T13:53:10.109Z,8.28
2023-02-16T13:54:44.781Z,8.25
2023-02-16T13:55:49.678Z,8.19
2023-02-16T13:56:52.591Z,8.14
2023-02-16T13:58:16.373Z,8.11
2023-02-16T13:59:27.962Z,8.08
2023-02-16T14:00:43.900Z,8.06
2023-02-16T14:01:51.384Z,8.03
2023-02-16T14:03:16.550Z,8.01
2023-02-16T14:04:23.498Z,7.97
2023-02-16T14:05:34.336Z,7.96
2023-02-16T14:06:40.006Z,7.94
2023-02-16T14:07:43.304Z,7.93
2023-02-16T14:09:11.995Z,7.91
2023-02-16T14:10:15.444Z,7.89
2023-02-16T14:11:19.168Z,7.86
2023-02-16T14:12:37.790Z,7.86
2023-02-16T14:13:46.943Z,7.84
2023-02-16T14:14:53.189Z,7.83
2023-02-16T14:16:02.207Z,7.82
2023-02-16T14:17:21.680Z,7.80
2023-02-16T14:18:36.932Z,7.78
2023-02-16T14:19:39.893Z,7.76
2023-02-16T14:20:42.916Z,7.75
2023-02-16T14:21:48.817Z,7.75
2023-02-16T14:23:00.734Z,7.75
2023-02-16T14:24:06.532Z,7.74
2023-02-16T14:25:24.467Z,7.72
2023-02-16T14:26:27.892Z,7.70
2023-02-16T14:27:49.721Z,7.69
2023-02-16T14:29:17.425Z,7.68
2023-02-16T14:30:27.242Z,7.68
2023-02-16T14:31:32.588Z,7.67
2023-02-16T14:32:39.811Z,7.66
2023-02-16T14:34:18.889Z,7.67
2023-02-16T14:35:27.330Z,7.69
2023-02-16T14:36:31.117Z,7.71
2023-02-16T14:37:41.502Z,7.71
2023-02-16T14:38:48.595Z,7.71
2023-02-16T14:40:07.529Z,7.69
2023-02-16T14:41:24.760Z,7.67
2023-02-16T14:42:32.140Z,7.67
2023-02-16T14:43:42.476Z,7.67
2023-02-16T14:45:07.098Z,7.66
2023-02-16T14:46:30.683Z,7.65
2023-02-16T14:47:47.295Z,7.63
2023-02-16T14:49:11.479Z,7.61
2023-02-16T14:50:32.405Z,7.59
2023-02-16T14:52:23.952Z,7.58
2023-02-16T14:53:48.208Z,7.56
2023-02-16T14:55:15.841Z,7.54
2023-02-16T14:56:45.755Z,7.50
2023-02-16T14:57:49.061Z,7.46
2023-02-16T14:59:00.914Z,7.43
2023-02-16T15:00:19.858Z,7.40
2023-02-16T15:01:24.022Z,7.37
2023-02-16T15:02:31.910Z,7.35
2023-02-16T15:03:55.450Z,7.33
2023-02-16T15:04:58.829Z,7.31
2023-02-16T15:06:06.447Z,7.29
2023-02-16T15:07:10.896Z,7.26
2023-02-16T15:08:19.300Z,7.23
2023-02-16T15:09:31.102Z,7.20
2023-02-16T15:10:34.027Z,7.17
2023-02-16T15:12:00.398Z,7.15